createdAt,value
2018-12-15T00:02:25.856Z,21.67
2018-12-15T00:04:54.039Z,21.90
2018-12-15T00:07:22.185Z,25.30
2018-12-15T00:09:54.633Z,23.30
2018-12-15T00:12:23.859Z,26.07
2018-12-15T00:14:53.045Z,23.37
2018-12-15T00:17:27.068Z,26.10
2018-12-15T00:19:55.299Z,24.97
2018-12-15T00:22:24.536Z,23.90
2018-12-15T00:24:52.730Z,25.47
2018-12-15T00:27:20.921Z,29.90
2018-12-15T00:29:50.069Z,20.65
2018-12-15T00:32:19.290Z,26.68
2018-12-15T00:34:48.851Z,25.83
2018-12-15T00:37:18.118Z,27.50
2018-12-15T00:39:46.371Z,24.77
2018-12-15T00:42:14.549Z,24.67
2018-12-15T00:44:42.741Z,24.33
2018-12-15T00:47:13.884Z,25.70
2018-12-15T00:49:39.706Z,27.65
2018-12-15T00:52:07.988Z,28.33
2018-12-15T00:54:36.216Z,25.40
2018-12-15T00:57:04.384Z,26.20
2018-12-15T00:59:32.667Z,25.40
2018-12-15T01:02:00.840Z,25.90
2018-12-15T01:04:28.999Z,25.47
2018-12-15T01:06:57.505Z,26.20
2018-12-15T01:09:25.671Z,23.50
2018-12-15T01:11:53.851Z,27.58
2018-12-15T01:14:23.103Z,25.23
2018-12-15T01:16:53.256Z,25.88
2018-12-15T01:19:21.497Z,26.40
2018-12-15T01:21:49.593Z,31.83
2018-12-15T01:24:17.776Z,29.03
2018-12-15T01:26:46.220Z,24.40
2018-12-15T01:29:14.427Z,27.63
2018-12-15T01:31:44.005Z,25.07
2018-12-15T01:34:13.287Z,28.30
2018-12-15T01:36:41.494Z,26.53
2018-12-15T01:39:10.033Z,30.27
2018-12-15T01:41:38.273Z,27.97
2018-12-15T01:44:07.836Z,26.97
2018-12-15T01:46:56.608Z,29.13
2018-12-15T01:49:24.827Z,24.47
2018-12-15T01:51:58.141Z,26.43
2018-12-15T01:54:26.187Z,28.50
2018-12-15T01:56:54.335Z,30.10
2018-12-15T01:59:22.524Z,33.10
2018-12-15T02:01:50.698Z,29.87
2018-12-15T02:04:19.233Z,32.17
2018-12-15T02:06:47.352Z,26.83
2018-12-15T02:09:16.603Z,26.00
2018-12-15T02:11:45.245Z,30.08
2018-12-15T02:14:13.427Z,30.40
2018-12-15T02:16:41.596Z,32.43
2018-12-15T02:19:09.750Z,31.87
2018-12-15T02:21:38.594Z,33.50
2018-12-15T02:24:06.788Z,32.23
2018-12-15T02:26:35.365Z,36.33
2018-12-15T02:29:04.561Z,38.97
2018-12-15T02:31:32.748Z,36.10
2018-12-15T02:34:00.942Z,37.28
2018-12-15T02:36:29.110Z,38.37
2018-12-15T02:38:57.261Z,34.53
2018-12-15T02:41:25.467Z,33.53
2018-12-15T02:43:53.657Z,34.20
2018-12-15T02:46:22.814Z,30.90
2018-12-15T02:48:51.997Z,32.23
2018-12-15T02:51:22.142Z,30.52
2018-12-15T02:53:50.304Z,31.20
2018-12-15T02:56:18.502Z,32.73
2018-12-15T02:58:46.651Z,33.93
2018-12-15T03:01:14.855Z,33.02
2018-12-15T03:03:43.023Z,29.47
2018-12-15T03:06:11.600Z,32.77
2018-12-15T03:08:39.760Z,28.57
2018-12-15T03:11:07.983Z,28.90
2018-12-15T03:13:36.111Z,33.63
2018-12-15T03:16:05.237Z,29.87
2018-12-15T03:18:33.717Z,30.73
2018-12-15T03:21:02.318Z,35.00
2018-12-15T03:23:30.454Z,34.20
2018-12-15T03:25:58.682Z,31.40
2018-12-15T03:28:26.910Z,38.17
2018-12-15T03:30:56.079Z,33.70
2018-12-15T03:33:28.279Z,38.30
2018-12-15T03:35:56.469Z,41.80
2018-12-15T03:38:27.685Z,35.80
2018-12-15T03:40:55.857Z,36.50
2018-12-15T03:43:24.036Z,40.50
2018-12-15T03:45:52.286Z,47.90
2018-12-15T03:48:20.536Z,50.30
2018-12-15T03:50:50.960Z,45.90
2018-12-15T03:53:19.546Z,40.33
2018-12-15T03:55:48.771Z,40.33
2018-12-15T03:58:17.026Z,40.60
2018-12-15T04:00:45.461Z,37.47
2018-12-15T04:03:13.615Z,36.20
2018-12-15T04:05:42.195Z,40.03
2018-12-15T04:08:10.377Z,36.97
2018-12-15T04:10:38.789Z,34.30
2018-12-15T04:13:07.958Z,34.03
2018-12-15T04:15:55.517Z,32.50
2018-12-15T04:18:23.758Z,31.65
2018-12-15T04:20:52.966Z,33.15
2018-12-15T04:23:21.154Z,33.77
2018-12-15T04:25:49.376Z,33.92
2018-12-15T04:28:18.591Z,35.67
2018-12-15T04:30:46.754Z,31.10
2018-12-15T04:33:14.976Z,35.15
2018-12-15T04:35:43.099Z,34.87
2018-12-15T04:38:11.375Z,36.20
2018-12-15T04:40:39.544Z,31.90
2018-12-15T04:43:07.737Z,33.83
2018-12-15T04:45:37.262Z,33.37
2018-12-15T04:48:10.981Z,38.13
2018-12-15T04:50:34.157Z,31.97
2018-12-15T04:53:02.356Z,32.07
2018-12-15T04:55:31.616Z,30.17
2018-12-15T04:57:59.913Z,34.70
2018-12-15T05:00:28.135Z,33.23
2018-12-15T05:02:56.289Z,34.30
2018-12-15T05:05:43.890Z,30.07
2018-12-15T05:08:12.090Z,36.30
2018-12-15T05:10:40.651Z,37.70
2018-12-15T05:13:08.848Z,30.83
2018-12-15T05:15:37.022Z,35.37
2018-12-15T05:18:06.200Z,34.73
2018-12-15T05:20:34.803Z,32.23
2018-12-15T05:23:03.059Z,32.53
2018-12-15T05:25:31.237Z,30.33
2018-12-15T05:28:04.496Z,34.57
2018-12-15T05:30:33.380Z,40.27
2018-12-15T05:33:01.602Z,29.53
2018-12-15T05:35:30.153Z,32.40
2018-12-15T05:37:58.408Z,32.87
2018-12-15T05:40:26.857Z,30.27
2018-12-15T05:42:56.939Z,28.33
2018-12-15T05:45:25.147Z,30.40
2018-12-15T05:47:53.311Z,30.27
2018-12-15T05:50:21.524Z,34.73
2018-12-15T05:52:49.776Z,29.60
2018-12-15T05:55:17.947Z,30.50
2018-12-15T05:57:46.195Z,30.23
2018-12-15T06:00:14.406Z,31.07
2018-12-15T06:02:43.594Z,26.63
2018-12-15T06:05:11.932Z,36.07
2018-12-15T06:07:40.143Z,27.10
2018-12-15T06:10:08.315Z,29.00
2018-12-15T06:12:36.478Z,30.57
2018-12-15T06:15:10.374Z,29.93
2018-12-15T06:17:38.546Z,29.03
2018-12-15T06:20:08.525Z,27.57
2018-12-15T06:22:36.753Z,28.60
2018-12-15T06:25:06.129Z,28.67
2018-12-15T06:27:36.166Z,29.53
2018-12-15T06:30:05.561Z,29.27
2018-12-15T06:32:34.015Z,35.63
2018-12-15T06:35:02.225Z,29.17
2018-12-15T06:37:35.721Z,31.33
2018-12-15T06:40:06.358Z,45.53
2018-12-15T06:42:35.183Z,31.73
2018-12-15T06:45:06.287Z,25.73
2018-12-15T06:47:38.389Z,28.23
2018-12-15T06:50:06.554Z,28.03
2018-12-15T06:52:34.721Z,27.70
2018-12-15T06:55:03.141Z,35.00
2018-12-15T06:57:31.389Z,28.77
2018-12-15T06:59:59.904Z,26.13
2018-12-15T07:02:29.192Z,28.10
2018-12-15T07:04:57.422Z,25.97
2018-12-15T07:07:25.629Z,26.27
2018-12-15T07:09:53.843Z,24.53
2018-12-15T07:12:22.038Z,31.27
2018-12-15T07:14:50.202Z,29.83
2018-12-15T07:17:18.413Z,30.40
2018-12-15T07:19:48.701Z,25.53
2018-12-15T07:22:16.884Z,23.77
2018-12-15T07:24:45.046Z,26.53
2018-12-15T07:27:13.236Z,27.07
2018-12-15T07:29:42.249Z,27.83
2018-12-15T07:32:10.494Z,24.57
2018-12-15T07:34:39.621Z,27.63
2018-12-15T07:37:08.817Z,28.93
2018-12-15T07:39:51.050Z,26.70
2018-12-15T07:42:27.296Z,26.57
2018-12-15T07:44:57.887Z,24.40
2018-12-15T07:47:27.056Z,26.33
2018-12-15T07:49:55.244Z,29.75
2018-12-15T07:52:23.445Z,27.90
2018-12-15T07:57:45.619Z,23.33
2018-12-15T08:00:13.889Z,24.03
2018-12-15T08:02:42.058Z,24.63
2018-12-15T08:05:11.220Z,35.27
2018-12-15T08:07:39.393Z,29.60
2018-12-15T08:10:07.867Z,23.00
2018-12-15T08:12:50.217Z,27.07
2018-12-15T08:15:18.355Z,22.87
2018-12-15T08:17:48.551Z,21.20
2018-12-15T08:20:18.047Z,20.17
2018-12-15T08:22:46.238Z,19.80
2018-12-15T08:25:16.512Z,18.87
2018-12-15T08:27:46.974Z,18.00
2018-12-15T08:30:16.305Z,17.62
2018-12-15T08:33:07.925Z,18.87
2018-12-15T08:35:36.451Z,17.13
2018-12-15T08:38:07.402Z,16.53
2018-12-15T08:40:40.947Z,18.23
2018-12-15T08:43:27.475Z,18.60
2018-12-15T08:46:15.623Z,19.93
2018-12-15T08:49:04.754Z,17.93
2018-12-15T08:51:31.014Z,18.97
2018-12-15T08:53:59.535Z,15.97
2018-12-15T08:56:27.813Z,18.57
2018-12-15T08:58:56.030Z,18.70
2018-12-15T09:01:24.256Z,18.30
2018-12-15T09:03:52.454Z,23.87
2018-12-15T09:06:21.741Z,16.52
2018-12-15T09:08:49.940Z,21.40
2018-12-15T09:11:18.152Z,16.73
2018-12-15T09:13:46.733Z,18.77
2018-12-15T09:16:14.965Z,15.63
2018-12-15T09:18:43.113Z,19.50
2018-12-15T09:21:34.220Z,16.97
2018-12-15T09:24:03.457Z,16.73
2018-12-15T09:26:31.659Z,16.63
2018-12-15T09:29:00.199Z,14.87
2018-12-15T09:31:28.654Z,17.10
2018-12-15T09:33:58.178Z,20.13
2018-12-15T09:36:26.678Z,19.50
2018-12-15T09:38:56.143Z,15.73
2018-12-15T09:41:25.364Z,17.27
2018-12-15T09:43:53.705Z,14.60
2018-12-15T09:46:23.874Z,17.13
2018-12-15T09:48:52.038Z,14.47
2018-12-15T09:51:21.241Z,15.77
2018-12-15T09:53:52.783Z,13.07
2018-12-15T09:56:23.538Z,14.60
2018-12-15T09:58:54.655Z,18.15
2018-12-15T10:01:24.994Z,13.80
2018-12-15T10:03:53.210Z,18.90
2018-12-15T10:06:21.478Z,17.37
2018-12-15T10:08:53.719Z,16.17
2018-12-15T10:11:42.541Z,14.50
2018-12-15T10:14:11.155Z,13.57
2018-12-15T10:27:24.679Z,13.57
2018-12-15T10:34:19.805Z,12.30
2018-12-15T10:37:12.326Z,16.40
2018-12-15T10:43:45.814Z,15.57
2018-12-15T10:46:57.745Z,14.13
2018-12-15T10:49:42.020Z,11.53
2018-12-15T10:52:15.459Z,12.80
2018-12-15T10:54:48.030Z,14.70
2018-12-15T10:57:16.335Z,14.37
2018-12-15T11:00:45.169Z,16.63
2018-12-15T11:03:16.455Z,13.63
2018-12-15T11:05:50.752Z,13.43
2018-12-15T11:08:30.217Z,14.07
2018-12-15T11:11:00.567Z,14.73
2018-12-15T11:13:45.689Z,12.63
2018-12-15T11:16:15.885Z,13.98
2018-12-15T11:18:44.129Z,12.70
2018-12-15T11:21:12.290Z,14.47
2018-12-15T11:23:44.352Z,14.57
2018-12-15T11:26:12.542Z,14.23
2018-12-15T11:28:40.733Z,16.53
2018-12-15T11:34:56.025Z,14.17
2018-12-15T11:40:58.049Z,13.23
2018-12-15T11:43:52.704Z,13.37
2018-12-15T11:47:12.688Z,13.20
2018-12-15T11:50:14.870Z,12.27
2018-12-15T11:52:49.663Z,16.97
2018-12-15T11:58:58.884Z,12.67
2018-12-15T12:01:33.184Z,12.30
2018-12-15T12:04:18.579Z,16.75
2018-12-15T12:06:58.018Z,17.17
2018-12-15T12:09:37.087Z,12.03
2018-12-15T12:12:05.317Z,23.23
2018-12-15T12:14:40.630Z,21.17
2018-12-15T12:17:17.737Z,17.20
2018-12-15T12:19:54.821Z,23.27
2018-12-15T12:22:23.334Z,14.50
2018-12-15T12:24:57.898Z,14.93
2018-12-15T12:27:26.136Z,18.27
2018-12-15T12:30:01.079Z,15.87
2018-12-15T12:32:29.439Z,14.60
2018-12-15T12:34:57.649Z,23.10
2018-12-15T12:44:35.597Z,13.90
2018-12-15T12:47:30.278Z,14.93
2018-12-15T12:50:16.969Z,14.30
2018-12-15T12:52:45.170Z,15.07
2018-12-15T12:55:19.751Z,15.00
2018-12-15T13:01:29.196Z,15.47
2018-12-15T13:04:03.308Z,13.93
2018-12-15T13:06:35.088Z,19.63
2018-12-15T13:09:11.361Z,14.53
2018-12-15T13:11:41.644Z,17.40
2018-12-15T13:14:10.883Z,18.13
2018-12-15T13:16:42.558Z,17.13
2018-12-15T13:19:11.827Z,16.97
2018-12-15T13:21:49.217Z,19.60
2018-12-15T13:24:26.044Z,18.00
2018-12-15T13:26:59.202Z,18.37
2018-12-15T13:29:25.488Z,19.10
2018-12-15T13:32:03.177Z,21.97
2018-12-15T13:34:37.623Z,20.97
2018-12-15T13:37:06.870Z,18.75
2018-12-15T13:39:35.794Z,17.70
2018-12-15T13:42:06.053Z,18.27
2018-12-15T13:44:34.245Z,17.40
2018-12-15T13:47:03.547Z,18.90
2018-12-15T13:49:35.796Z,15.30
2018-12-15T13:52:13.182Z,16.97
2018-12-15T13:54:48.822Z,14.65
2018-12-15T13:57:25.466Z,15.07
2018-12-15T13:59:53.712Z,19.30
2018-12-15T14:02:23.927Z,18.50
2018-12-15T14:04:52.107Z,18.67
2018-12-15T14:07:22.484Z,14.83
2018-12-15T14:10:13.712Z,17.50
2018-12-15T14:12:49.397Z,18.77
2018-12-15T14:15:32.295Z,17.80
2018-12-15T14:18:16.741Z,14.33
2018-12-15T14:20:47.944Z,16.63
2018-12-15T14:23:49.357Z,15.90
2018-12-15T14:26:28.797Z,16.47
2018-12-15T14:28:58.299Z,17.70
2018-12-15T14:32:03.691Z,13.53
2018-12-15T14:35:02.500Z,14.67
2018-12-15T14:38:04.571Z,17.77
2018-12-15T14:40:46.124Z,14.43
2018-12-15T14:43:14.450Z,16.60
2018-12-15T14:45:42.851Z,19.57
2018-12-15T14:48:15.448Z,15.73
2018-12-15T14:50:43.656Z,20.03
2018-12-15T14:53:13.901Z,19.43
2018-12-15T14:55:47.935Z,23.33
2018-12-15T14:58:19.580Z,22.90
2018-12-15T15:00:51.502Z,23.80
2018-12-15T15:03:24.159Z,22.17
2018-12-15T15:05:52.676Z,22.63
2018-12-15T15:08:22.276Z,20.40
2018-12-15T15:11:00.495Z,24.17
2018-12-15T15:13:34.607Z,18.80
2018-12-15T15:16:15.140Z,22.30
2018-12-15T15:18:49.242Z,21.33
2018-12-15T15:21:17.598Z,20.77
2018-12-15T15:23:45.773Z,23.50
2018-12-15T15:26:13.973Z,25.40
2018-12-15T15:28:42.575Z,24.87
2018-12-15T15:31:16.123Z,28.27
2018-12-15T15:33:44.342Z,23.83
2018-12-15T15:36:13.544Z,27.87
2018-12-15T15:38:42.982Z,24.95
2018-12-15T15:41:11.179Z,21.97
2018-12-15T15:43:41.456Z,27.70
2018-12-15T15:46:09.767Z,27.07
2018-12-15T15:48:38.203Z,26.57
2018-12-15T15:51:07.505Z,29.97
2018-12-15T15:53:35.800Z,24.80
2018-12-15T15:56:11.341Z,26.48
2018-12-15T15:58:39.621Z,31.27
2018-12-15T16:01:07.898Z,31.77
2018-12-15T16:03:37.116Z,31.70
2018-12-15T16:06:06.451Z,28.60
2018-12-15T16:08:47.700Z,29.90
2018-12-15T16:11:34.000Z,28.63
2018-12-15T16:14:15.280Z,26.68
2018-12-15T16:16:48.038Z,30.50
2018-12-15T16:19:58.705Z,29.00
2018-12-15T16:22:46.669Z,30.97
2018-12-15T16:28:48.751Z,31.30
2018-12-15T16:31:25.940Z,30.47
2018-12-15T16:33:54.103Z,27.57
2018-12-15T16:36:28.254Z,30.73
2018-12-15T16:39:27.179Z,33.33
2018-12-15T16:42:09.171Z,31.23
2018-12-15T16:44:40.185Z,29.47
2018-12-15T16:47:13.684Z,32.23
2018-12-15T16:49:41.881Z,31.40
2018-12-15T16:52:10.130Z,31.23
2018-12-15T16:54:41.519Z,29.87
2018-12-15T16:57:10.792Z,32.73
2018-12-15T16:59:39.074Z,34.13
2018-12-15T17:02:07.317Z,32.45
2018-12-15T17:04:36.529Z,30.08
2018-12-15T17:07:06.779Z,35.10
2018-12-15T17:09:36.008Z,31.33
2018-12-15T17:12:04.576Z,32.73
2018-12-15T17:14:32.884Z,32.73
2018-12-15T17:17:01.049Z,32.33
2018-12-15T17:19:29.221Z,29.30
2018-12-15T17:21:58.407Z,29.57
2018-12-15T17:24:26.630Z,27.13
2018-12-15T17:26:55.054Z,27.77
2018-12-15T17:29:23.291Z,32.53
2018-12-15T17:31:51.521Z,28.87
2018-12-15T17:34:19.813Z,29.07
2018-12-15T17:36:58.711Z,28.23
2018-12-15T17:39:26.890Z,30.73
2018-12-15T17:41:55.087Z,31.63
2018-12-15T17:44:24.257Z,29.23
2018-12-15T17:46:52.498Z,30.52
2018-12-15T17:49:20.710Z,31.00
2018-12-15T17:51:49.009Z,27.93
2018-12-15T17:54:17.476Z,29.27
2018-12-15T17:56:47.051Z,31.63
2018-12-15T17:59:15.277Z,29.37
2018-12-15T18:01:43.666Z,28.17
2018-12-15T18:04:12.154Z,29.47
2018-12-15T18:06:44.386Z,28.60
2018-12-15T18:09:22.674Z,30.75
2018-12-15T18:11:50.870Z,30.23
2018-12-15T18:14:19.045Z,32.77
2018-12-15T18:16:52.342Z,29.83
2018-12-15T18:19:20.514Z,29.90
2018-12-15T18:21:48.756Z,35.65
2018-12-15T18:24:16.989Z,23.73
2018-12-15T18:26:46.193Z,24.70
2018-12-15T18:29:14.409Z,21.53
2018-12-15T18:31:49.670Z,21.80
2018-12-15T18:34:18.934Z,23.40
2018-12-15T18:36:53.185Z,22.33
2018-12-15T18:39:22.486Z,22.27
2018-12-15T18:41:50.715Z,22.90
2018-12-15T18:44:18.974Z,22.97
2018-12-15T18:47:08.900Z,27.63
2018-12-15T18:49:37.097Z,22.13
2018-12-15T18:52:07.387Z,24.63
2018-12-15T18:54:35.643Z,23.70
2018-12-15T18:57:04.146Z,27.10
2018-12-15T18:59:32.355Z,22.97
2018-12-15T19:02:23.772Z,24.53
2018-12-15T19:05:08.970Z,28.77
2018-12-15T19:07:40.679Z,25.13
2018-12-15T19:10:09.899Z,26.13
2018-12-15T19:12:44.107Z,25.63
2018-12-15T19:15:12.354Z,26.10
2018-12-15T19:17:43.934Z,21.97
2018-12-15T19:20:15.881Z,29.30
2018-12-15T19:22:44.053Z,26.03
2018-12-15T19:25:12.322Z,26.70
2018-12-15T19:27:40.494Z,28.03
2018-12-15T19:30:08.675Z,24.17
2018-12-15T19:32:36.841Z,28.63
2018-12-15T19:35:06.099Z,25.27
2018-12-15T19:37:34.367Z,23.63
2018-12-15T19:40:02.494Z,28.80
2018-12-15T19:42:30.684Z,26.97
2018-12-15T19:44:58.846Z,24.83
2018-12-15T19:47:27.064Z,27.23
2018-12-15T19:49:55.617Z,27.47
2018-12-15T19:52:24.064Z,28.07
2018-12-15T19:54:52.298Z,27.07
2018-12-15T19:57:22.968Z,29.33
2018-12-15T19:59:51.229Z,27.27
2018-12-15T20:02:20.246Z,27.27
2018-12-15T20:04:49.353Z,31.35
2018-12-15T20:07:17.541Z,30.73
2018-12-15T20:09:45.720Z,30.80
2018-12-15T20:12:13.928Z,30.97
2018-12-15T20:14:42.214Z,31.87
2018-12-15T20:17:10.764Z,27.30
2018-12-15T20:19:40.178Z,27.57
2018-12-15T20:22:16.327Z,28.80
2018-12-15T20:24:44.557Z,31.53
2018-12-15T20:27:12.811Z,32.67
2018-12-15T20:29:44.195Z,28.60
2018-12-15T20:32:13.419Z,31.23
2018-12-15T20:34:41.653Z,31.97
2018-12-15T20:37:10.068Z,31.37
2018-12-15T20:39:38.223Z,28.60
2018-12-15T20:42:08.486Z,31.47
2018-12-15T20:44:41.713Z,30.90
2018-12-15T20:47:06.112Z,30.83
2018-12-15T20:49:34.380Z,38.47
2018-12-15T20:52:03.661Z,30.93
2018-12-15T20:54:31.863Z,33.60
2018-12-15T20:57:00.378Z,32.37
2018-12-15T20:59:34.262Z,33.57
2018-12-15T21:02:03.466Z,33.50
2018-12-15T21:04:34.714Z,30.90
2018-12-15T21:07:03.917Z,33.57
2018-12-15T21:09:41.381Z,29.10
2018-12-15T21:12:11.911Z,33.00
2018-12-15T21:14:40.157Z,33.57
2018-12-15T21:17:09.355Z,34.30
2018-12-15T21:19:37.564Z,33.00
2018-12-15T21:22:05.805Z,32.80
2018-12-15T21:24:34.084Z,33.97
2018-12-15T21:27:02.600Z,35.07
2018-12-15T21:29:30.782Z,34.60
2018-12-15T21:31:58.983Z,32.53
2018-12-15T21:34:27.233Z,35.73
2018-12-15T21:36:55.624Z,33.27
2018-12-15T21:39:23.890Z,36.73
2018-12-15T21:41:52.091Z,36.40
2018-12-15T21:44:20.328Z,35.50
2018-12-15T21:46:48.511Z,37.83
2018-12-15T21:49:16.680Z,36.53
2018-12-15T21:51:44.829Z,35.87
2018-12-15T21:54:13.085Z,38.40
2018-12-15T21:56:41.290Z,39.07
2018-12-15T21:59:10.394Z,38.10
2018-12-15T22:01:39.597Z,37.47
2018-12-15T22:04:07.754Z,33.70
2018-12-15T22:06:35.920Z,38.10
2018-12-15T22:09:05.885Z,30.23
2018-12-15T22:11:39.944Z,34.17
2018-12-15T22:14:08.169Z,31.23
2018-12-15T22:16:36.421Z,33.77
2018-12-15T22:19:05.616Z,31.93
2018-12-15T22:21:33.764Z,32.17
2018-12-15T22:24:01.952Z,32.77
2018-12-15T22:26:32.409Z,30.07
2018-12-15T22:29:00.746Z,32.67
2018-12-15T22:31:28.924Z,32.97
2018-12-15T22:33:57.099Z,29.23
2018-12-15T22:36:25.658Z,30.30
2018-12-15T22:38:53.854Z,32.63
2018-12-15T22:41:22.038Z,32.30
2018-12-15T22:43:50.322Z,31.57
2018-12-15T22:46:19.502Z,31.90
2018-12-15T22:48:48.076Z,28.67
2018-12-15T22:51:16.266Z,27.43
2018-12-15T22:53:44.432Z,28.90
2018-12-15T22:56:12.890Z,30.93
2018-12-15T22:58:41.066Z,30.83
2018-12-15T23:01:13.118Z,30.53
2018-12-15T23:03:41.362Z,29.73
2018-12-15T23:06:09.543Z,30.87
2018-12-15T23:08:37.816Z,27.67
2018-12-15T23:11:06.046Z,29.10
2018-12-15T23:13:34.217Z,29.83
2018-12-15T23:16:02.752Z,31.00
2018-12-15T23:18:31.253Z,31.47
2018-12-15T23:20:59.461Z,29.47
2018-12-15T23:23:27.685Z,29.07
2018-12-15T23:25:56.088Z,34.83
2018-12-15T23:28:24.596Z,31.60
2018-12-15T23:30:52.837Z,27.67
2018-12-15T23:33:21.965Z,29.50
2018-12-15T23:35:50.214Z,35.27
2018-12-15T23:38:19.455Z,32.70
2018-12-15T23:40:54.717Z,26.60
2018-12-15T23:43:23.424Z,29.17
2018-12-15T23:45:51.768Z,30.17
2018-12-15T23:48:19.942Z,33.13
2018-12-15T23:50:48.110Z,33.27
2018-12-15T23:53:16.278Z,31.10
2018-12-15T23:55:44.827Z,29.97
2018-12-15T23:58:32.410Z,30.20
